Time;durP1;ratioP1;P1;durP2;ratioP2;P2;SDS_P1;SDS_P2;PMS_P1;PMS_P2;Temp;Humidity;BMP_temperature;BMP_pressure;BME280_temperature;BME280_humidity;BME280_pressure;Samples;Min_cycle;Max_cycle;Signal;HPM_P1;HPM_P2
2023/06/18 00:00:24;;;;;;;12.30;9.85;;;;;;;;;;13173559;22;20431;-86
2023/06/18 00:05:26;;;;;;;12.43;10.00;;;;;;;;;;13194780;22;20690;-86
2023/06/18 00:10:30;;;;;;;14.90;10.32;;;;;;;;;;13172770;22;20839;-86
2023/06/18 00:15:32;;;;;;;13.02;10.60;;;;;;;;;;13175127;22;20426;-86
2023/06/18 00:20:35;;;;;;;14.40;11.20;;;;;;;;;;13171727;22;20407;-86
2023/06/18 00:25:38;;;;;;;13.63;10.88;;;;;;;;;;13172925;22;20361;-85
2023/06/18 00:30:41;;;;;;;14.00;11.67;;;;;;;;;;13172622;22;20358;-86
2023/06/18 00:35:43;;;;;;;14.57;11.25;;;;;;;;;;13172107;22;20735;-86
2023/06/18 00:40:47;;;;;;;13.35;10.50;;;;;;;;;;13171787;22;20457;-86
2023/06/18 00:45:50;;;;;;;13.00;10.32;;;;;;;;;;13173119;22;20890;-86
2023/06/18 00:50:53;;;;;;;15.48;10.65;;;;;;;;;;13172609;22;20388;-85
2023/06/18 00:55:56;;;;;;;12.60;10.60;;;;;;;;;;13167154;22;20399;-85
2023/06/18 01:00:59;;;;;;;15.75;10.80;;;;;;;;;;13169879;22;20407;-85
2023/06/18 01:06:02;;;;;;;13.13;10.57;;;;;;;;;;13170657;22;20840;-86
2023/06/18 01:11:07;;;;;;;14.32;10.75;;;;;;;;;;13170287;22;20404;-86
2023/06/18 01:16:10;;;;;;;13.40;10.47;;;;;;;;;;13172771;22;21098;-86
2023/06/18 01:21:15;;;;;;;14.37;11.33;;;;;;;;;;13174442;22;20381;-85
2023/06/18 01:26:20;;;;;;;13.63;10.63;;;;;;;;;;13176259;22;20349;-86
2023/06/18 01:31:23;;;;;;;14.30;10.88;;;;;;;;;;13176773;22;20354;-85
2023/06/18 01:36:37;;;;;;;13.90;10.98;;;;;;;;;;13176198;22;20689;-85
2023/06/18 01:41:46;;;;;;;13.67;11.10;;;;;;;;;;13175982;22;21156;-86
2023/06/18 01:46:51;;;;;;;15.20;11.47;;;;;;;;;;13174010;22;20422;-86
2023/06/18 01:51:54;;;;;;;14.07;11.10;;;;;;;;;;13175734;22;20362;-85
2023/06/18 01:56:59;;;;;;;14.73;11.32;;;;;;;;;;13175374;22;20358;-85
2023/06/18 02:02:01;;;;;;;14.17;10.37;;;;;;;;;;13175521;22;20373;-85
2023/06/18 02:07:04;;;;;;;14.27;11.43;;;;;;;;;;13197430;22;20362;-85
2023/06/18 02:12:09;;;;;;;12.33;10.97;;;;;;;;;;13175567;22;20357;-85
2023/06/18 02:17:11;;;;;;;16.58;10.60;;;;;;;;;;13175014;22;20836;-85
2023/06/18 02:22:13;;;;;;;14.73;10.33;;;;;;;;;;13174876;22;20918;-85
2023/06/18 02:27:17;;;;;;;12.90;10.15;;;;;;;;;;13175443;22;20362;-85
2023/06/18 02:32:19;;;;;;;13.33;10.80;;;;;;;;;;13174462;22;20357;-86
2023/06/18 02:37:22;;;;;;;12.70;10.68;;;;;;;;;;13174883;22;20403;-86
2023/06/18 02:42:25;;;;;;;13.38;10.38;;;;;;;;;;13171862;22;20369;-85
2023/06/18 02:47:28;;;;;;;13.10;10.30;;;;;;;;;;13171942;22;20353;-85
2023/06/18 02:52:30;;;;;;;11.60;10.30;;;;;;;;;;13170800;22;20901;-86
2023/06/18 02:57:34;;;;;;;12.80;10.27;;;;;;;;;;13171942;22;20411;-86
2023/06/18 03:02:36;;;;;;;11.95;10.15;;;;;;;;;;13171177;22;20438;-85
2023/06/18 03:07:39;;;;;;;15.55;10.43;;;;;;;;;;13170679;22;20414;-85
2023/06/18 03:12:42;;;;;;;15.27;9.77;;;;;;;;;;13170818;22;20361;-85
2023/06/18 03:17:45;;;;;;;13.03;9.90;;;;;;;;;;13170425;22;20362;-85
2023/06/18 03:22:47;;;;;;;12.80;10.07;;;;;;;;;;13170594;22;20426;-85
2023/06/18 03:27:51;;;;;;;11.68;9.57;;;;;;;;;;13171865;22;20387;-85
2023/06/18 03:32:56;;;;;;;11.03;9.47;;;;;;;;;;13171590;22;20414;-85
2023/06/18 03:37:58;;;;;;;12.20;9.80;;;;;;;;;;13088474;22;1837823;-85
2023/06/18 03:43:02;;;;;;;12.05;9.43;;;;;;;;;;13195813;22;20689;-86
2023/06/18 03:48:05;;;;;;;13.50;10.18;;;;;;;;;;13174083;22;20369;-86
2023/06/18 03:53:07;;;;;;;12.68;9.75;;;;;;;;;;13173241;22;20412;-86
2023/06/18 03:58:11;;;;;;;12.47;9.63;;;;;;;;;;13173688;22;20370;-86
2023/06/18 04:03:13;;;;;;;12.53;9.97;;;;;;;;;;13173152;22;20377;-85
2023/06/18 04:08:16;;;;;;;12.25;9.80;;;;;;;;;;13173523;22;20407;-85
2023/06/18 04:13:20;;;;;;;14.35;9.50;;;;;;;;;;13172727;22;20395;-85
2023/06/18 04:18:24;;;;;;;12.00;9.40;;;;;;;;;;13172778;22;20434;-85
2023/06/18 04:23:27;;;;;;;13.27;9.85;;;;;;;;;;13172826;22;20373;-85
2023/06/18 04:28:31;;;;;;;12.02;9.82;;;;;;;;;;13172943;22;20370;-85
2023/06/18 04:33:34;;;;;;;12.27;9.32;;;;;;;;;;13173041;22;20358;-84
2023/06/18 04:38:37;;;;;;;13.10;9.30;;;;;;;;;;13169910;22;20415;-85
2023/06/18 04:43:40;;;;;;;12.23;9.10;;;;;;;;;;13172486;22;20799;-85
2023/06/18 04:48:42;;;;;;;12.73;9.50;;;;;;;;;;13172839;22;20362;-86
2023/06/18 04:53:45;;;;;;;10.88;8.90;;;;;;;;;;13171297;22;20425;-84
2023/06/18 04:58:49;;;;;;;11.03;9.07;;;;;;;;;;13174570;22;20361;-85
2023/06/18 05:03:51;;;;;;;10.83;8.90;;;;;;;;;;13198168;22;20460;-85
2023/06/18 05:08:53;;;;;;;11.25;8.93;;;;;;;;;;13175700;22;20898;-85
2023/06/18 05:13:58;;;;;;;10.70;8.63;;;;;;;;;;13198292;22;20418;-85
2023/06/18 05:19:00;;;;;;;10.57;8.57;;;;;;;;;;13175452;22;20825;-85
2023/06/18 05:24:03;;;;;;;8.93;8.03;;;;;;;;;;13176153;22;20411;-85
2023/06/18 05:29:07;;;;;;;11.40;8.55;;;;;;;;;;13175421;22;20354;-85
2023/06/18 05:34:09;;;;;;;10.13;8.75;;;;;;;;;;13197384;22;20358;-85
2023/06/18 05:39:11;;;;;;;11.15;8.73;;;;;;;;;;13175520;22;20366;-85
2023/06/18 05:44:15;;;;;;;10.73;8.43;;;;;;;;;;13175028;22;20377;-85
2023/06/18 05:49:17;;;;;;;10.57;9.00;;;;;;;;;;13175023;22;20353;-85
2023/06/18 05:54:19;;;;;;;11.82;8.63;;;;;;;;;;13175753;22;20414;-85
2023/06/18 05:59:23;;;;;;;11.10;8.85;;;;;;;;;;13175263;22;20354;-85
2023/06/18 06:04:25;;;;;;;10.15;8.90;;;;;;;;;;13174879;22;20878;-85
2023/06/18 06:09:28;;;;;;;9.90;8.30;;;;;;;;;;13174025;22;20414;-85
2023/06/18 06:14:31;;;;;;;10.50;8.07;;;;;;;;;;13173339;22;20415;-85
2023/06/18 06:19:34;;;;;;;10.02;7.75;;;;;;;;;;13187896;22;20739;-86
2023/06/18 06:24:36;;;;;;;9.80;8.13;;;;;;;;;;13169059;22;20736;-86
2023/06/18 06:29:40;;;;;;;11.40;8.52;;;;;;;;;;13169219;22;20667;-85
2023/06/18 06:34:42;;;;;;;11.60;8.57;;;;;;;;;;13168683;22;20349;-86
2023/06/18 06:39:44;;;;;;;11.68;9.18;;;;;;;;;;13168408;22;20427;-94
2023/06/18 06:44:48;;;;;;;11.82;9.02;;;;;;;;;;13183490;22;20357;-95
2023/06/18 06:49:50;;;;;;;10.93;8.63;;;;;;;;;;13173022;22;20387;-86
2023/06/18 06:54:52;;;;;;;9.82;7.82;;;;;;;;;;13169913;22;20690;-85
2023/06/18 06:59:56;;;;;;;9.97;7.50;;;;;;;;;;13172231;22;20426;-85
2023/06/18 07:04:58;;;;;;;9.30;7.47;;;;;;;;;;13164038;22;20358;-86
2023/06/18 07:10:01;;;;;;;10.03;7.47;;;;;;;;;;13169998;22;20844;-85
2023/06/18 07:15:06;;;;;;;8.98;7.75;;;;;;;;;;13190672;22;20387;-86
2023/06/18 07:20:09;;;;;;;7.95;6.60;;;;;;;;;;13171941;22;20747;-86
2023/06/18 07:25:11;;;;;;;8.67;7.10;;;;;;;;;;13170730;22;20358;-86
2023/06/18 07:30:15;;;;;;;9.32;7.15;;;;;;;;;;13171939;22;20693;-85
2023/06/18 07:35:17;;;;;;;7.95;6.53;;;;;;;;;;13172232;22;20430;-87
2023/06/18 07:40:20;;;;;;;8.13;6.45;;;;;;;;;;13171354;22;20373;-86
2023/06/18 07:45:23;;;;;;;7.23;6.10;;;;;;;;;;13171915;22;20350;-85
2023/06/18 07:50:26;;;;;;;8.55;6.70;;;;;;;;;;13171620;22;20415;-86
2023/06/18 07:55:28;;;;;;;9.67;7.30;;;;;;;;;;13170795;22;20358;-86
2023/06/18 08:00:32;;;;;;;9.07;5.80;;;;;;;;;;13170757;22;20373;-86
2023/06/18 08:05:34;;;;;;;6.83;5.90;;;;;;;;;;13171448;22;20395;-87
2023/06/18 08:10:37;;;;;;;9.05;7.10;;;;;;;;;;13172197;22;20369;-87
2023/06/18 08:15:40;;;;;;;8.30;6.32;;;;;;;;;;13172581;22;20837;-87
2023/06/18 08:20:42;;;;;;;8.63;6.90;;;;;;;;;;13174455;22;20378;-87
2023/06/18 08:25:45;;;;;;;9.52;6.88;;;;;;;;;;13175061;22;20427;-86
2023/06/18 08:30:49;;;;;;;5.97;5.07;;;;;;;;;;13176769;22;20365;-87
2023/06/18 08:35:52;;;;;;;7.40;5.60;;;;;;;;;;13175604;22;20817;-87
2023/06/18 08:41:00;;;;;;;5.95;4.85;;;;;;;;;;13177621;22;20376;-87
2023/06/18 08:46:09;;;;;;;5.43;4.55;;;;;;;;;;13178535;22;20528;-87
2023/06/18 08:51:12;;;;;;;6.65;5.28;;;;;;;;;;13178296;22;20361;-87
2023/06/18 08:56:16;;;;;;;6.55;5.50;;;;;;;;;;13176991;22;20399;-87
2023/06/18 09:01:20;;;;;;;5.77;4.57;;;;;;;;;;13178178;22;20385;-87
2023/06/18 09:06:24;;;;;;;4.40;3.90;;;;;;;;;;13178980;22;20358;-87
2023/06/18 09:11:26;;;;;;;5.57;4.47;;;;;;;;;;13177286;22;20387;-85
2023/06/18 09:16:30;;;;;;;5.40;4.57;;;;;;;;;;13176795;22;20394;-87
2023/06/18 09:21:43;;;;;;;4.80;4.25;;;;;;;;;;13177183;22;20373;-87
2023/06/18 09:26:46;;;;;;;4.18;3.72;;;;;;;;;;13175975;22;20354;-87
2023/06/18 09:31:50;;;;;;;5.22;4.72;;;;;;;;;;13177068;22;20366;-87
2023/06/18 09:36:52;;;;;;;6.55;4.60;;;;;;;;;;13176332;22;20724;-87
2023/06/18 09:41:55;;;;;;;5.40;4.45;;;;;;;;;;13176032;22;20402;-87
2023/06/18 09:46:59;;;;;;;5.00;4.50;;;;;;;;;;13177635;22;20905;-86
2023/06/18 09:52:02;;;;;;;5.30;4.40;;;;;;;;;;13177211;22;20357;-87
2023/06/18 09:57:06;;;;;;;6.25;4.70;;;;;;;;;;13176321;22;20395;-87
2023/06/18 10:02:13;;;;;;;6.45;4.90;;;;;;;;;;13177060;22;20675;-87
2023/06/18 10:07:16;;;;;;;6.32;4.97;;;;;;;;;;13176439;22;20358;-87
2023/06/18 10:12:19;;;;;;;7.20;4.60;;;;;;;;;;13177006;22;20370;-87
2023/06/18 10:17:27;;;;;;;6.25;4.20;;;;;;;;;;13176998;22;20362;-87
2023/06/18 10:22:35;;;;;;;4.72;4.22;;;;;;;;;;13175875;22;20739;-87
2023/06/18 10:27:38;;;;;;;4.32;3.92;;;;;;;;;;13175729;22;20365;-87
2023/06/18 10:32:44;;;;;;;5.38;4.30;;;;;;;;;;13176515;22;20406;-87
2023/06/18 10:37:47;;;;;;;5.90;4.47;;;;;;;;;;13175526;22;20357;-87
2023/06/18 10:42:49;;;;;;;5.27;4.13;;;;;;;;;;13175149;22;20431;-87
2023/06/18 10:48:15;;;;;;;4.57;4.18;;;;;;;;;;13176129;22;20418;-87
2023/06/18 10:53:24;;;;;;;5.60;4.50;;;;;;;;;;13175385;22;20435;-87
2023/06/18 10:58:33;;;;;;;5.13;4.43;;;;;;;;;;13175936;22;20388;-87
2023/06/18 11:03:40;;;;;;;6.05;4.53;;;;;;;;;;13174201;22;20370;-87
2023/06/18 11:08:42;;;;;;;5.07;4.55;;;;;;;;;;13174958;22;20391;-87
2023/06/18 11:13:53;;;;;;;6.80;4.57;;;;;;;;;;13176224;22;20383;-88
2023/06/18 11:19:02;;;;;;;5.32;4.50;;;;;;;;;;13176159;22;20422;-88
2023/06/18 11:24:09;;;;;;;4.90;4.40;;;;;;;;;;13148505;22;20458;-88
2023/06/18 11:29:11;;;;;;;5.15;4.38;;;;;;;;;;13148666;22;20390;-88
2023/06/18 11:34:15;;;;;;;5.78;4.60;;;;;;;;;;13174608;22;20390;-88
2023/06/18 11:39:17;;;;;;;6.03;4.57;;;;;;;;;;13174967;22;20361;-88
2023/06/18 11:44:25;;;;;;;5.15;4.30;;;;;;;;;;13175207;22;20377;-88
2023/06/18 11:49:29;;;;;;;4.68;4.22;;;;;;;;;;13175317;22;20410;-88
2023/06/18 11:54:35;;;;;;;5.28;4.65;;;;;;;;;;13176976;22;20353;-88
2023/06/18 11:59:37;;;;;;;5.05;4.55;;;;;;;;;;13191925;22;20426;-89
2023/06/18 12:04:43;;;;;;;5.35;4.45;;;;;;;;;;13180035;22;20374;-87
2023/06/18 12:09:46;;;;;;;5.03;4.53;;;;;;;;;;13174501;22;20689;-88
2023/06/18 12:14:55;;;;;;;5.28;4.70;;;;;;;;;;13174943;22;20358;-88
2023/06/18 12:20:05;;;;;;;5.20;4.70;;;;;;;;;;13174878;22;20419;-88
2023/06/18 12:25:09;;;;;;;5.55;4.90;;;;;;;;;;13174493;22;20377;-88
2023/06/18 12:30:13;;;;;;;6.43;5.18;;;;;;;;;;13173606;22;20358;-88
2023/06/18 12:35:21;;;;;;;5.60;5.10;;;;;;;;;;13173819;22;20362;-88
2023/06/18 12:40:25;;;;;;;6.10;4.97;;;;;;;;;;13173800;22;20357;-88
2023/06/18 12:45:32;;;;;;;6.97;5.55;;;;;;;;;;13147623;22;20381;-87
2023/06/18 12:50:44;;;;;;;6.37;5.40;;;;;;;;;;13174408;22;20387;-88
2023/06/18 12:55:48;;;;;;;5.28;4.78;;;;;;;;;;13174863;22;20354;-88
2023/06/18 13:00:50;;;;;;;6.05;5.45;;;;;;;;;;13175060;22;20357;-88
2023/06/18 13:05:54;;;;;;;6.15;4.97;;;;;;;;;;13175069;22;20377;-88
2023/06/18 13:10:57;;;;;;;5.53;5.03;;;;;;;;;;13173339;22;20361;-88
2023/06/18 13:15:59;;;;;;;6.40;5.80;;;;;;;;;;13173931;22;20354;-88
2023/06/18 13:21:03;;;;;;;6.05;5.45;;;;;;;;;;13176555;22;20410;-88
2023/06/18 13:26:05;;;;;;;6.97;5.30;;;;;;;;;;13178302;22;20430;-88
2023/06/18 13:31:08;;;;;;;6.73;5.30;;;;;;;;;;13177451;22;20732;-88
2023/06/18 13:36:12;;;;;;;5.70;5.20;;;;;;;;;;13173357;22;20750;-88
2023/06/18 13:41:14;;;;;;;7.20;5.70;;;;;;;;;;13170891;22;20383;-86
2023/06/18 13:46:16;;;;;;;6.20;5.60;;;;;;;;;;13173285;22;20792;-85
2023/06/18 13:51:20;;;;;;;5.83;5.10;;;;;;;;;;13173559;22;20833;-85
2023/06/18 13:56:22;;;;;;;6.45;5.65;;;;;;;;;;13173026;22;20361;-87
2023/06/18 14:01:25;;;;;;;6.17;5.30;;;;;;;;;;13164897;22;20399;-85
2023/06/18 14:06:29;;;;;;;6.00;5.40;;;;;;;;;;13158957;22;20389;-89
2023/06/18 14:11:31;;;;;;;6.25;5.32;;;;;;;;;;13164719;22;20369;-90
2023/06/18 14:16:34;;;;;;;5.72;5.22;;;;;;;;;;13167991;22;20430;-89
2023/06/18 14:21:38;;;;;;;7.45;5.20;;;;;;;;;;13168551;22;20362;-89
2023/06/18 14:26:40;;;;;;;7.03;5.93;;;;;;;;;;13168224;22;20910;-87
2023/06/18 14:31:42;;;;;;;6.07;5.47;;;;;;;;;;13167601;22;20545;-89
2023/06/18 14:36:46;;;;;;;5.25;4.72;;;;;;;;;;13167080;22;20370;-90
2023/06/18 14:41:50;;;;;;;6.10;5.05;;;;;;;;;;13168931;22;20426;-89
2023/06/18 14:46:52;;;;;;;5.15;4.65;;;;;;;;;;13167008;22;20415;-90
2023/06/18 14:51:56;;;;;;;6.33;5.00;;;;;;;;;;13170402;22;20381;-89
2023/06/18 14:56:59;;;;;;;5.88;5.20;;;;;;;;;;13168531;22;20369;-90
2023/06/18 15:02:01;;;;;;;5.45;4.95;;;;;;;;;;13166146;22;20369;-90
2023/06/18 15:07:05;;;;;;;5.90;4.70;;;;;;;;;;13189350;22;20829;-89
2023/06/18 15:12:08;;;;;;;5.13;4.60;;;;;;;;;;13191810;22;20353;-90
2023/06/18 15:17:11;;;;;;;4.80;4.28;;;;;;;;;;13170156;22;20383;-89
2023/06/18 15:22:15;;;;;;;5.78;4.25;;;;;;;;;;13173264;22;20870;-90
2023/06/18 15:27:17;;;;;;;5.80;4.50;;;;;;;;;;13171012;22;20405;-91
2023/06/18 15:32:20;;;;;;;6.07;4.60;;;;;;;;;;13173066;22;20869;-87
2023/06/18 15:37:23;;;;;;;4.10;3.80;;;;;;;;;;13169018;22;20354;-87
2023/06/18 15:42:26;;;;;;;5.53;4.23;;;;;;;;;;13190099;22;20365;-87
2023/06/18 15:47:28;;;;;;;3.90;3.60;;;;;;;;;;13173052;22;20411;-90
2023/06/18 15:52:32;;;;;;;4.20;3.80;;;;;;;;;;13171145;22;20491;-89
2023/06/18 15:57:34;;;;;;;7.17;4.03;;;;;;;;;;13170705;22;20418;-77
2023/06/18 16:02:36;;;;;;;4.17;3.77;;;;;;;;;;13168012;22;20407;-86
2023/06/18 16:07:40;;;;;;;3.83;3.40;;;;;;;;;;13168718;22;20513;-86
2023/06/18 16:12:42;;;;;;;5.77;3.80;;;;;;;;;;13167617;22;20391;-86
2023/06/18 16:17:45;;;;;;;4.10;3.53;;;;;;;;;;13171132;22;20361;-90
2023/06/18 16:22:48;;;;;;;3.80;3.40;;;;;;;;;;13175148;22;20370;-90
2023/06/18 16:27:51;;;;;;;4.45;3.53;;;;;;;;;;13166186;22;20345;-81
2023/06/18 16:32:54;;;;;;;4.63;3.47;;;;;;;;;;13165525;22;20410;-82
2023/06/18 16:37:59;;;;;;;3.80;3.40;;;;;;;;;;13162629;22;20475;-82
2023/06/18 16:43:01;;;;;;;3.60;3.30;;;;;;;;;;13184212;22;20387;-81
2023/06/18 16:48:04;;;;;;;4.00;3.58;;;;;;;;;;13163689;22;20361;-82
2023/06/18 16:53:08;;;;;;;4.43;3.70;;;;;;;;;;13188018;22;20357;-82
2023/06/18 16:58:12;;;;;;;4.65;3.70;;;;;;;;;;13166963;22;20369;-84
2023/06/18 17:03:15;;;;;;;4.30;3.90;;;;;;;;;;13169644;22;20786;-86
2023/06/18 17:08:18;;;;;;;5.45;3.42;;;;;;;;;;13167944;22;20361;-85
2023/06/18 17:13:21;;;;;;;4.88;3.75;;;;;;;;;;13168478;22;20362;-84
2023/06/18 17:18:23;;;;;;;5.47;3.47;;;;;;;;;;13167018;22;20366;-85
2023/06/18 17:23:27;;;;;;;6.50;3.77;;;;;;;;;;13164565;22;20426;-85
2023/06/18 17:28:31;;;;;;;5.45;3.50;;;;;;;;;;13165357;22;20361;-85
2023/06/18 17:33:33;;;;;;;4.90;3.30;;;;;;;;;;13167948;22;20723;-87
2023/06/18 17:38:37;;;;;;;4.28;3.40;;;;;;;;;;13171301;22;20422;-87
2023/06/18 17:43:39;;;;;;;4.73;3.40;;;;;;;;;;13191951;22;20365;-86
2023/06/18 17:48:43;;;;;;;4.20;3.50;;;;;;;;;;13171804;22;20415;-87
2023/06/18 17:53:47;;;;;;;4.85;3.22;;;;;;;;;;13175977;22;20365;-88
2023/06/18 17:58:49;;;;;;;4.80;3.50;;;;;;;;;;13174062;22;20357;-88
2023/06/18 18:03:51;;;;;;;5.37;3.70;;;;;;;;;;13174566;22;20382;-88
2023/06/18 18:08:55;;;;;;;6.13;3.70;;;;;;;;;;13196189;22;20667;-87
2023/06/18 18:13:57;;;;;;;5.00;3.30;;;;;;;;;;13173148;22;20667;-87
2023/06/18 18:19:00;;;;;;;4.83;3.40;;;;;;;;;;13173878;22;20422;-86
2023/06/18 18:24:04;;;;;;;6.33;3.80;;;;;;;;;;13172492;22;20430;-88
2023/06/18 18:29:06;;;;;;;6.60;3.67;;;;;;;;;;13170203;22;20358;-86
2023/06/18 18:34:10;;;;;;;5.00;3.60;;;;;;;;;;13169421;22;20365;-75
2023/06/18 18:39:14;;;;;;;4.82;3.55;;;;;;;;;;13174994;22;20391;-88
2023/06/18 18:44:16;;;;;;;4.83;3.87;;;;;;;;;;13174998;22;20381;-88
2023/06/18 18:49:18;;;;;;;8.50;4.10;;;;;;;;;;13195127;22;20759;-95
2023/06/18 18:54:22;;;;;;;5.17;3.60;;;;;;;;;;13178026;22;20362;-89
2023/06/18 18:59:24;;;;;;;5.95;3.70;;;;;;;;;;13175706;22;20357;-89
2023/06/18 19:04:26;;;;;;;4.45;3.67;;;;;;;;;;13198616;22;20369;-89
2023/06/18 19:09:30;;;;;;;5.70;3.88;;;;;;;;;;13177751;22;20361;-89
2023/06/18 19:14:34;;;;;;;7.50;3.90;;;;;;;;;;13176324;22;20358;-89
2023/06/18 19:19:37;;;;;;;5.20;4.00;;;;;;;;;;13177020;22;20414;-87
2023/06/18 19:24:41;;;;;;;5.80;4.70;;;;;;;;;;13175068;22;20407;-90
2023/06/18 19:29:43;;;;;;;7.15;4.70;;;;;;;;;;13177783;22;20365;-89
2023/06/18 19:34:46;;;;;;;5.38;4.30;;;;;;;;;;13177799;22;20821;-90
2023/06/18 19:39:49;;;;;;;6.43;4.75;;;;;;;;;;13177048;22;20744;-90
2023/06/18 19:44:54;;;;;;;6.80;4.87;;;;;;;;;;13175313;22;20361;-86
2023/06/18 19:49:56;;;;;;;6.35;4.20;;;;;;;;;;13165553;22;20366;-89
2023/06/18 19:55:00;;;;;;;5.03;4.03;;;;;;;;;;13164387;22;20366;-88
2023/06/18 20:00:02;;;;;;;6.70;4.00;;;;;;;;;;13167523;22;20361;-88
2023/06/18 20:05:06;;;;;;;5.93;4.20;;;;;;;;;;13168900;22;20381;-87
2023/06/18 20:10:10;;;;;;;6.22;4.63;;;;;;;;;;13169087;22;20373;-87
2023/06/18 20:15:14;;;;;;;6.00;4.40;;;;;;;;;;13168998;22;20446;-88
2023/06/18 20:20:19;;;;;;;5.77;4.43;;;;;;;;;;13168294;22;20430;-87
2023/06/18 20:25:23;;;;;;;5.88;4.43;;;;;;;;;;13190349;22;20753;-88
2023/06/18 20:30:26;;;;;;;5.45;4.55;;;;;;;;;;13168713;22;20415;-88
2023/06/18 20:35:28;;;;;;;6.90;4.80;;;;;;;;;;13168717;22;20374;-88
2023/06/18 20:40:32;;;;;;;6.13;4.68;;;;;;;;;;13167563;22;20426;-88
2023/06/18 20:45:34;;;;;;;6.85;4.82;;;;;;;;;;13167419;22;20423;-87
2023/06/18 20:50:36;;;;;;;6.82;5.10;;;;;;;;;;13167888;22;20430;-88
2023/06/18 20:55:40;;;;;;;6.75;6.00;;;;;;;;;;13167762;22;20374;-87
2023/06/18 21:00:42;;;;;;;8.90;6.70;;;;;;;;;;13166560;22;20374;-88
2023/06/18 21:05:45;;;;;;;10.50;6.85;;;;;;;;;;13181100;22;20434;-88
2023/06/18 21:10:48;;;;;;;8.77;6.75;;;;;;;;;;13168093;22;20423;-88
2023/06/18 21:15:51;;;;;;;7.90;6.22;;;;;;;;;;13167820;22;20378;-86
2023/06/18 21:20:53;;;;;;;9.38;7.05;;;;;;;;;;13168804;22;20832;-88
2023/06/18 21:25:56;;;;;;;10.55;6.88;;;;;;;;;;13167925;22;20381;-88
2023/06/18 21:30:59;;;;;;;9.45;7.07;;;;;;;;;;13164120;22;20361;-93
2023/06/18 21:36:01;;;;;;;9.00;7.30;;;;;;;;;;13172901;22;20414;-93
2023/06/18 21:41:05;;;;;;;11.35;7.53;;;;;;;;;;13176828;22;20370;-94
2023/06/18 21:46:07;;;;;;;10.82;7.57;;;;;;;;;;13179914;22;20861;-94
2023/06/18 21:51:10;;;;;;;10.70;8.10;;;;;;;;;;13180333;22;20366;-93
2023/06/18 21:56:13;;;;;;;10.50;8.00;;;;;;;;;;13181296;22;20353;-93
2023/06/18 22:01:16;;;;;;;10.02;7.80;;;;;;;;;;13181645;22;21075;-94
2023/06/18 22:06:18;;;;;;;10.98;8.23;;;;;;;;;;13179419;22;20407;-93
2023/06/18 22:11:23;;;;;;;8.90;7.53;;;;;;;;;;13181318;22;20358;-93
2023/06/18 22:16:25;;;;;;;9.82;8.10;;;;;;;;;;13179569;22;20380;-93
2023/06/18 22:21:27;;;;;;;8.87;7.93;;;;;;;;;;13179445;22;20362;-95
2023/06/18 22:26:31;;;;;;;11.55;7.97;;;;;;;;;;13180759;22;20666;-93
2023/06/18 22:31:33;;;;;;;10.93;8.73;;;;;;;;;;13177953;22;20485;-95
2023/06/18 22:36:36;;;;;;;9.20;7.97;;;;;;;;;;13182223;22;20357;-94
2023/06/18 22:41:39;;;;;;;9.23;8.32;;;;;;;;;;13180058;22;20362;-94
2023/06/18 22:46:42;;;;;;;10.00;8.10;;;;;;;;;;13180544;22;20434;-94
2023/06/18 22:51:44;;;;;;;10.50;7.88;;;;;;;;;;13177968;22;20422;-94
2023/06/18 22:56:48;;;;;;;9.30;7.22;;;;;;;;;;13180303;22;20411;-94
2023/06/18 23:01:50;;;;;;;8.73;7.50;;;;;;;;;;13180150;22;20383;-93
2023/06/18 23:06:53;;;;;;;9.13;7.70;;;;;;;;;;13181689;22;20698;-94
2023/06/18 23:11:56;;;;;;;8.57;7.30;;;;;;;;;;13181175;22;20388;-93
2023/06/18 23:16:59;;;;;;;10.17;7.50;;;;;;;;;;13182591;22;20393;-93
2023/06/18 23:22:05;;;;;;;10.63;7.60;;;;;;;;;;13182025;22;20349;-94
2023/06/18 23:27:11;;;;;;;10.77;7.80;;;;;;;;;;13181321;22;20434;-93
2023/06/18 23:32:13;;;;;;;10.27;7.65;;;;;;;;;;13181182;22;20361;-93
2023/06/18 23:37:15;;;;;;;9.23;7.45;;;;;;;;;;13180597;22;20387;-94
2023/06/18 23:42:19;;;;;;;9.35;7.53;;;;;;;;;;13177455;22;20373;-83
2023/06/18 23:47:22;;;;;;;9.55;6.93;;;;;;;;;;13178519;22;20434;-83
2023/06/18 23:52:25;;;;;;;7.95;6.97;;;;;;;;;;13171424;22;20358;-83
2023/06/18 23:57:29;;;;;;;8.00;7.03;;;;;;;;;;13173614;22;21139;-83
